Illiopolis, Illinois
Current Conditions -  °F | °C
As of 5:54 AM on Friday 28 Nov 2014 (Local Time) from KDEC Reporting Station
Overcast Overcast  
Wind Chill:   Ceiling: 12000
Heat Index: 20°   Visibility: 10mi
Dew Point: 11°   Wind: 9mph
Humidity: 68%   Direction: 150°SSE
Pressure: 30.32"   Gusts: NA
Location:  39.85°N, 89.24°W
Report Text: KDEC 281154Z 15008KT 10SM SCT070 OVC120 M07/M12 A3032 RMK AO2 SLP278 T10671117 11067 21083 58024
Loading
Personal Weather Stations






























Interactive Weather Map New forecast layout! Learn more

10-Day Weather Forecast

Advertisements
Track Severe Weather on mobile